Time;durP1;ratioP1;P1;durP2;ratioP2;P2;SDS_P1;SDS_P2;PMS_P1;PMS_P2;Temp;Humidity;BMP_temperature;BMP_pressure;BME280_temperature;BME280_humidity;BME280_pressure;Samples;Min_cycle;Max_cycle;Signal;HPM_P1;HPM_P2
2020/12/12 00:00:42;;;;;;;14.67;13.23;;;5.60;99.90;;;;;;5073508;28;20160;-66
2020/12/12 00:03:07;;;;;;;16.07;14.47;;;5.70;99.90;;;;;;5073625;28;20213;-65
2020/12/12 00:05:33;;;;;;;15.93;14.30;;;5.70;99.90;;;;;;5073498;28;20188;-65
2020/12/12 00:07:58;;;;;;;16.80;15.10;;;5.70;99.90;;;;;;5073869;28;20207;-65
2020/12/12 00:10:26;;;;;;;14.50;13.10;;;5.70;99.90;;;;;;5073508;28;20167;-65
2020/12/12 00:12:51;;;;;;;15.73;14.30;;;5.80;99.90;;;;;;5073382;28;20157;-65
2020/12/12 00:15:17;;;;;;;15.50;13.90;;;5.80;99.90;;;;;;5084468;28;20440;-66
2020/12/12 00:17:44;;;;;;;15.80;14.20;;;5.80;99.90;;;;;;5093354;28;20160;-65
2020/12/12 00:20:09;;;;;;;15.57;14.03;;;5.80;99.90;;;;;;5093393;28;20187;-65
2020/12/12 00:22:35;;;;;;;14.27;12.97;;;5.80;99.90;;;;;;5093296;28;20401;-66
2020/12/12 00:25:00;;;;;;;14.23;12.93;;;5.90;99.90;;;;;;5073709;28;20172;-65
2020/12/12 00:27:26;;;;;;;15.37;13.87;;;5.90;99.90;;;;;;5073048;28;20236;-65
2020/12/12 00:29:51;;;;;;;15.83;14.33;;;5.80;99.90;;;;;;5073108;28;20255;-66
2020/12/12 00:32:17;;;;;;;15.50;13.90;;;5.90;99.90;;;;;;5073195;28;20162;-65
2020/12/12 00:34:42;;;;;;;14.53;12.87;;;5.90;99.90;;;;;;5073008;28;20242;-65
2020/12/12 00:37:08;;;;;;;13.60;12.30;;;5.90;99.90;;;;;;5073025;28;20665;-65
2020/12/12 00:39:34;;;;;;;14.60;13.20;;;5.90;99.90;;;;;;5073019;28;20164;-65
2020/12/12 00:41:59;;;;;;;13.63;12.37;;;5.80;99.90;;;;;;5073468;28;20544;-65
2020/12/12 00:44:25;;;;;;;14.77;13.27;;;5.80;99.90;;;;;;5076812;28;20249;-65
2020/12/12 00:46:50;;;;;;;13.07;11.87;;;5.80;99.90;;;;;;5092833;28;20671;-65
2020/12/12 00:49:16;;;;;;;14.47;13.03;;;5.90;99.90;;;;;;5093136;28;20163;-65
2020/12/12 00:51:41;;;;;;;15.03;13.57;;;5.90;99.90;;;;;;5093448;28;20186;-65
2020/12/12 00:54:07;;;;;;;15.97;14.40;;;6.00;99.90;;;;;;5093022;28;20652;-65
2020/12/12 00:56:32;;;;;;;15.70;14.10;;;6.00;99.90;;;;;;5093161;28;20220;-65
2020/12/12 00:58:58;;;;;;;15.70;14.20;;;6.00;99.90;;;;;;5073777;28;20187;-66
2020/12/12 01:01:23;;;;;;;15.37;13.80;;;6.00;99.90;;;;;;5072702;28;20167;-65
2020/12/12 01:03:49;;;;;;;15.87;14.37;;;6.00;99.90;;;;;;5072780;28;20175;-65
2020/12/12 01:06:17;;;;;;;16.47;14.80;;;6.00;99.90;;;;;;5072861;28;20504;-65
2020/12/12 01:08:43;;;;;;;15.10;13.63;;;6.00;99.90;;;;;;5072765;28;20180;-66
2020/12/12 01:11:10;;;;;;;14.97;13.40;;;6.10;99.90;;;;;;5072753;28;20398;-66
2020/12/12 01:13:36;;;;;;;16.10;14.60;;;6.10;99.90;;;;;;5072707;28;20402;-65
2020/12/12 01:16:10;;;;;;;15.27;13.80;;;6.10;99.90;;;;;;5073422;28;20915;-65
2020/12/12 01:18:36;;;;;;;14.90;13.50;;;6.10;99.90;;;;;;5072465;28;20195;-65
2020/12/12 01:21:03;;;;;;;15.87;14.27;;;6.10;99.90;;;;;;5072548;28;20461;-65
2020/12/12 01:23:29;;;;;;;15.57;14.07;;;6.20;99.90;;;;;;5072538;28;20443;-65
2020/12/12 01:25:54;;;;;;;14.63;13.13;;;6.20;99.90;;;;;;5072578;28;20693;-65
2020/12/12 01:28:21;;;;;;;16.03;14.40;;;6.20;99.90;;;;;;5073817;28;20720;-65
2020/12/12 01:30:48;;;;;;;15.13;13.47;;;6.20;99.90;;;;;;5076912;28;20157;-65
2020/12/12 01:33:14;;;;;;;16.60;14.90;;;6.20;99.90;;;;;;5076608;28;20784;-65
2020/12/12 01:35:39;;;;;;;18.80;16.80;;;6.20;99.90;;;;;;5075276;28;20410;-65
2020/12/12 01:38:05;;;;;;;16.27;14.77;;;6.20;99.90;;;;;;5076571;28;20892;-65
2020/12/12 01:40:30;;;;;;;15.27;13.77;;;6.20;99.90;;;;;;5076372;28;20163;-65
2020/12/12 01:42:56;;;;;;;15.10;13.60;;;6.20;99.90;;;;;;5076301;28;20213;-65
2020/12/12 01:45:21;;;;;;;13.63;12.43;;;6.20;99.90;;;;;;5076193;28;20160;-65
2020/12/12 01:47:47;;;;;;;16.77;15.27;;;6.20;99.90;;;;;;5076558;28;20334;-65
2020/12/12 01:50:13;;;;;;;15.07;13.57;;;6.20;99.90;;;;;;5076130;28;20164;-65
2020/12/12 01:52:39;;;;;;;14.60;13.20;;;6.20;99.90;;;;;;5091539;28;20538;-65
2020/12/12 01:55:05;;;;;;;15.27;13.93;;;6.20;99.90;;;;;;5096033;28;20405;-65
2020/12/12 01:57:31;;;;;;;15.40;13.80;;;6.20;99.90;;;;;;5096143;28;20400;-66
2020/12/12 01:59:57;;;;;;;14.37;13.00;;;6.20;99.90;;;;;;5096161;28;20163;-65
2020/12/12 02:02:22;;;;;;;15.30;13.80;;;6.20;99.90;;;;;;5095260;28;20163;-65
2020/12/12 02:04:53;;;;;;;15.03;13.60;;;6.30;99.90;;;;;;5094922;28;20761;-65
2020/12/12 02:07:19;;;;;;;15.87;14.33;;;6.20;99.90;;;;;;5074505;28;20453;-65
2020/12/12 02:09:46;;;;;;;15.73;14.23;;;6.20;99.90;;;;;;5075956;28;20751;-65
2020/12/12 02:12:13;;;;;;;16.00;14.40;;;6.20;99.90;;;;;;5075698;28;20481;-66
2020/12/12 02:14:39;;;;;;;16.70;15.10;;;6.20;99.90;;;;;;5075640;28;20749;-65
2020/12/12 02:17:07;;;;;;;16.47;14.80;;;6.20;99.90;;;;;;5076097;28;20426;-65
2020/12/12 02:19:33;;;;;;;16.33;14.73;;;6.20;99.90;;;;;;5074459;28;20160;-65
2020/12/12 02:22:00;;;;;;;16.33;14.70;;;6.20;99.90;;;;;;5076098;28;20413;-65
2020/12/12 02:24:31;;;;;;;15.07;13.57;;;6.20;99.90;;;;;;5075256;28;20779;-65
2020/12/12 02:26:57;;;;;;;15.00;13.33;;;6.20;99.90;;;;;;5075261;28;20445;-65
2020/12/12 02:29:26;;;;;;;15.37;13.93;;;6.20;99.90;;;;;;5075405;28;20383;-65
2020/12/12 02:31:52;;;;;;;15.30;13.80;;;6.20;99.90;;;;;;5075319;28;20472;-65
2020/12/12 02:34:18;;;;;;;15.60;14.00;;;6.20;99.90;;;;;;5095753;28;20779;-65
2020/12/12 02:36:43;;;;;;;14.57;13.23;;;6.30;99.90;;;;;;5095786;28;20168;-65
2020/12/12 02:39:12;;;;;;;15.10;13.70;;;6.30;99.90;;;;;;5090490;28;20175;-65
2020/12/12 02:41:37;;;;;;;14.60;13.20;;;6.30;99.90;;;;;;5075250;28;20187;-65
2020/12/12 02:44:03;;;;;;;12.97;11.67;;;6.30;99.90;;;;;;5075257;28;20783;-65
2020/12/12 02:46:29;;;;;;;14.77;13.27;;;6.30;99.90;;;;;;5081819;28;20209;-65
2020/12/12 02:48:55;;;;;;;15.70;14.30;;;6.30;99.90;;;;;;5095384;28;20398;-65
2020/12/12 02:51:21;;;;;;;14.60;13.20;;;6.30;99.90;;;;;;5095209;28;20393;-65
2020/12/12 02:53:47;;;;;;;14.33;12.97;;;6.40;99.90;;;;;;5095127;28;20397;-65
2020/12/12 02:56:16;;;;;;;15.00;13.60;;;6.40;99.90;;;;;;5089248;28;20562;-65
2020/12/12 02:58:43;;;;;;;15.60;14.00;;;6.40;99.90;;;;;;5074995;28;20445;-65
2020/12/12 03:01:09;;;;;;;15.03;13.53;;;6.40;99.90;;;;;;5075041;28;20900;-65
2020/12/12 03:03:34;;;;;;;13.50;12.17;;;6.40;99.90;;;;;;5074569;28;20399;-65
2020/12/12 03:06:00;;;;;;;14.07;12.67;;;6.40;99.90;;;;;;5074531;28;20180;-65
2020/12/12 03:08:27;;;;;;;15.57;14.07;;;6.40;99.90;;;;;;5074461;28;20160;-65
2020/12/12 03:10:53;;;;;;;14.80;13.40;;;6.40;99.90;;;;;;5074792;28;20410;-65
2020/12/12 03:13:18;;;;;;;15.13;13.70;;;6.40;99.90;;;;;;5075592;28;20438;-65
2020/12/12 03:15:44;;;;;;;17.03;15.23;;;6.40;99.90;;;;;;5074735;28;20475;-65
2020/12/12 03:18:09;;;;;;;14.87;13.43;;;6.50;99.90;;;;;;5094701;28;20160;-65
2020/12/12 03:20:35;;;;;;;14.93;13.47;;;6.50;99.90;;;;;;5094688;28;20322;-65
2020/12/12 03:23:01;;;;;;;14.37;12.90;;;6.50;99.90;;;;;;5094779;28;20163;-65
2020/12/12 03:25:26;;;;;;;15.70;14.00;;;6.50;99.90;;;;;;5082754;28;20168;-65
2020/12/12 03:27:52;;;;;;;15.57;14.07;;;6.50;99.90;;;;;;5074612;28;20176;-65
2020/12/12 03:30:17;;;;;;;14.50;13.00;;;6.50;99.90;;;;;;5074820;28;20234;-65
2020/12/12 03:32:43;;;;;;;17.73;15.63;;;6.50;99.90;;;;;;5074485;28;20636;-65
2020/12/12 03:35:08;;;;;;;16.17;14.57;;;6.50;99.90;;;;;;5074074;28;20167;-65
2020/12/12 03:37:34;;;;;;;13.80;12.40;;;6.50;99.90;;;;;;5074601;28;20238;-65
2020/12/12 03:39:59;;;;;;;15.17;13.57;;;6.60;99.90;;;;;;5074021;28;20192;-65
2020/12/12 03:42:25;;;;;;;15.53;14.00;;;6.60;99.90;;;;;;5074152;28;20171;-65
2020/12/12 03:44:50;;;;;;;15.60;14.00;;;6.60;99.90;;;;;;5074677;28;20188;-65
2020/12/12 03:47:16;;;;;;;15.27;13.50;;;6.60;99.90;;;;;;5081775;28;20657;-65
2020/12/12 03:49:41;;;;;;;15.50;13.97;;;6.60;99.90;;;;;;5074088;28;20160;-65
2020/12/12 03:52:07;;;;;;;14.43;13.00;;;6.60;99.90;;;;;;5072987;28;20540;-65
2020/12/12 03:54:33;;;;;;;15.63;14.10;;;6.60;99.90;;;;;;5073759;28;20198;-65
2020/12/12 03:56:58;;;;;;;15.50;14.00;;;6.50;99.90;;;;;;5073733;28;20168;-65
2020/12/12 03:59:24;;;;;;;15.50;13.70;;;6.60;99.90;;;;;;5073888;28;20525;-65
2020/12/12 04:01:49;;;;;;;16.10;14.47;;;6.60;99.90;;;;;;5073550;28;20214;-65
2020/12/12 04:04:15;;;;;;;14.70;13.23;;;6.60;99.90;;;;;;5074101;28;20221;-65
2020/12/12 04:06:41;;;;;;;16.73;15.03;;;6.60;99.90;;;;;;5073491;28;20246;-65
2020/12/12 04:09:06;;;;;;;16.30;14.60;;;6.50;99.90;;;;;;5073524;28;20152;-65
2020/12/12 04:11:32;;;;;;;15.40;13.90;;;6.50;99.90;;;;;;5072318;28;20156;-65
2020/12/12 04:13:58;;;;;;;15.73;14.23;;;6.50;99.90;;;;;;5072308;28;20160;-65
2020/12/12 04:16:23;;;;;;;17.07;15.40;;;6.50;99.90;;;;;;5080928;28;20183;-65
2020/12/12 04:18:49;;;;;;;16.20;14.60;;;6.50;99.90;;;;;;5093510;28;20254;-65
2020/12/12 04:21:14;;;;;;;17.43;15.53;;;6.40;99.90;;;;;;5088257;28;20203;-65
2020/12/12 04:23:43;;;;;;;17.50;15.80;;;6.40;99.90;;;;;;5073386;28;20596;-65
2020/12/12 04:26:11;;;;;;;18.93;16.87;;;6.40;99.90;;;;;;5073437;28;20159;-65
2020/12/12 04:28:38;;;;;;;17.17;15.40;;;6.40;99.90;;;;;;5073111;28;20394;-65
2020/12/12 04:31:04;;;;;;;18.70;16.70;;;6.30;99.90;;;;;;5073139;28;20398;-65
2020/12/12 04:33:29;;;;;;;17.17;15.40;;;6.30;99.90;;;;;;5073007;28;20401;-65
2020/12/12 04:35:55;;;;;;;17.70;15.90;;;6.40;99.90;;;;;;5073035;28;20182;-65
2020/12/12 04:38:21;;;;;;;17.07;15.37;;;6.40;99.90;;;;;;5073503;28;20183;-65
2020/12/12 04:40:47;;;;;;;16.60;14.83;;;6.40;99.90;;;;;;5072986;28;20160;-65
2020/12/12 04:43:13;;;;;;;17.93;15.97;;;6.40;99.90;;;;;;5072771;28;20656;-65
2020/12/12 04:45:41;;;;;;;16.40;14.50;;;6.40;99.90;;;;;;5073750;28;20379;-65
2020/12/12 04:48:07;;;;;;;15.73;14.10;;;6.50;99.90;;;;;;5093023;28;20214;-66
2020/12/12 04:50:33;;;;;;;16.83;15.13;;;6.50;99.90;;;;;;5093185;28;20429;-65
2020/12/12 04:53:12;;;;;;;16.90;15.13;;;6.40;99.90;;;;;;5093290;28;20166;-65
2020/12/12 04:55:43;;;;;;;17.33;15.10;;;6.40;99.90;;;;;;5084933;28;20168;-65
2020/12/12 04:58:13;;;;;;;17.43;15.70;;;6.40;99.90;;;;;;5072752;28;20398;-65
2020/12/12 05:00:42;;;;;;;16.50;14.87;;;6.40;99.90;;;;;;5072780;28;20399;-65
2020/12/12 05:03:15;;;;;;;17.87;15.23;;;6.40;99.90;;;;;;5072819;28;20891;-65
2020/12/12 05:05:41;;;;;;;19.53;16.43;;;6.50;99.90;;;;;;5072574;28;20873;-66
2020/12/12 05:08:08;;;;;;;15.77;14.13;;;6.50;99.90;;;;;;5072763;28;20468;-66
2020/12/12 05:10:36;;;;;;;15.50;14.00;;;6.60;99.90;;;;;;5071710;28;20406;-66
2020/12/12 05:13:02;;;;;;;17.90;14.40;;;6.60;99.90;;;;;;5073123;28;20456;-66
2020/12/12 05:15:28;;;;;;;16.00;14.30;;;6.50;99.90;;;;;;5074916;28;20430;-65
2020/12/12 05:17:56;;;;;;;16.80;15.00;;;6.50;99.90;;;;;;5092945;28;20878;-65
2020/12/12 05:20:21;;;;;;;16.83;15.13;;;6.50;99.90;;;;;;5092846;28;20202;-66
2020/12/12 05:22:48;;;;;;;18.93;16.93;;;6.40;99.90;;;;;;5074806;28;20455;-65
2020/12/12 05:25:13;;;;;;;16.30;14.70;;;6.50;99.90;;;;;;5072820;28;20156;-65
2020/12/12 05:27:40;;;;;;;21.00;17.63;;;6.40;99.90;;;;;;5072539;28;20438;-65
2020/12/12 05:30:06;;;;;;;20.47;18.27;;;6.50;99.90;;;;;;5084525;28;20262;-65
2020/12/12 05:32:31;;;;;;;18.37;16.47;;;6.50;99.90;;;;;;5092694;28;20468;-66
2020/12/12 05:34:56;;;;;;;19.47;17.47;;;6.50;99.90;;;;;;5092695;28;20243;-66
2020/12/12 05:37:22;;;;;;;18.20;16.13;;;6.40;99.90;;;;;;5093026;28;20699;-65
2020/12/12 05:39:49;;;;;;;17.90;15.03;;;6.40;99.90;;;;;;5092749;28;20164;-65
2020/12/12 05:42:20;;;;;;;18.60;16.60;;;6.40;99.90;;;;;;5092619;28;20262;-66
2020/12/12 05:44:48;;;;;;;19.33;15.97;;;6.40;99.90;;;;;;5092944;28;20429;-65
2020/12/12 05:47:15;;;;;;;18.37;16.43;;;6.50;99.90;;;;;;5091605;28;20452;-65
2020/12/12 05:49:45;;;;;;;20.63;18.43;;;6.50;99.90;;;;;;5092720;28;20905;-66
2020/12/12 05:52:10;;;;;;;19.30;17.20;;;6.50;99.90;;;;;;5081009;28;20422;-65
2020/12/12 05:54:36;;;;;;;19.30;16.10;;;6.50;99.90;;;;;;5072537;28;20933;-65
2020/12/12 05:57:02;;;;;;;19.03;17.03;;;6.60;99.90;;;;;;5072723;28;20179;-65
2020/12/12 05:59:28;;;;;;;18.40;15.80;;;6.60;99.90;;;;;;5072329;28;20167;-65
2020/12/12 06:01:55;;;;;;;18.67;16.77;;;6.60;99.90;;;;;;5072412;28;20882;-66
2020/12/12 06:04:24;;;;;;;17.93;16.00;;;6.60;99.90;;;;;;5086005;28;20175;-66
2020/12/12 06:06:56;;;;;;;16.47;14.80;;;6.60;99.90;;;;;;5092609;28;20456;-65
2020/12/12 06:09:29;;;;;;;17.73;15.93;;;6.60;99.90;;;;;;5092592;28;20430;-66
2020/12/12 06:11:56;;;;;;;16.40;14.80;;;6.60;99.90;;;;;;5092665;28;20661;-66
2020/12/12 06:14:23;;;;;;;16.37;14.47;;;6.60;99.90;;;;;;5093680;28;20885;-66
2020/12/12 06:16:48;;;;;;;16.43;14.77;;;6.60;99.90;;;;;;5079935;28;20437;-65
2020/12/12 06:19:16;;;;;;;17.90;15.23;;;6.50;99.90;;;;;;5075844;28;20760;-65
2020/12/12 06:21:47;;;;;;;18.40;16.50;;;6.50;99.90;;;;;;5076623;28;20196;-66
2020/12/12 06:24:15;;;;;;;17.23;15.50;;;6.60;99.90;;;;;;5075957;28;20401;-65
2020/12/12 06:29:18;;;;;;;15.63;14.03;;;6.60;99.90;;;;;;5110760;27;20503;-65
2020/12/12 06:31:44;;;;;;;16.23;14.53;;;6.60;99.90;;;;;;5109708;28;20436;-66
2020/12/12 06:34:10;;;;;;;16.67;14.97;;;6.60;99.90;;;;;;5109788;28;20381;-65
2020/12/12 06:36:36;;;;;;;16.37;13.77;;;6.70;99.90;;;;;;5110984;28;20900;-65
2020/12/12 06:41:55;;;;;;;14.57;13.10;;;6.60;99.90;;;;;;5110820;27;20502;-65
2020/12/12 06:44:30;;;;;;;14.63;13.23;;;6.60;99.90;;;;;;5110856;28;20428;-66
2020/12/12 06:46:56;;;;;;;14.70;13.20;;;6.70;99.90;;;;;;5108963;28;20461;-66
2020/12/12 06:49:22;;;;;;;13.60;12.30;;;6.70;99.90;;;;;;5111393;28;20385;-66
2020/12/12 06:51:50;;;;;;;14.50;13.00;;;6.70;99.90;;;;;;5110849;28;20380;-65
2020/12/12 06:54:16;;;;;;;14.13;12.73;;;6.70;99.90;;;;;;5107677;28;20170;-65
2020/12/12 06:56:41;;;;;;;14.40;13.00;;;6.70;99.90;;;;;;5110544;28;20481;-65
2020/12/12 06:59:31;;;;;;;13.23;12.03;;;6.70;99.90;;;;;;5110517;28;20150;-66
2020/12/12 07:02:00;;;;;;;13.33;12.13;;;6.80;99.90;;;;;;5109628;28;20560;-66
2020/12/12 07:04:32;;;;;;;12.97;11.70;;;6.70;99.90;;;;;;5109895;28;20473;-65
2020/12/12 07:07:00;;;;;;;13.70;12.40;;;6.80;99.90;;;;;;5110295;28;20749;-65
2020/12/12 07:09:27;;;;;;;14.10;12.60;;;6.80;99.90;;;;;;5110332;28;20752;-66
2020/12/12 07:11:53;;;;;;;13.23;12.03;;;6.70;99.90;;;;;;5109384;28;20401;-66
2020/12/12 07:14:19;;;;;;;14.03;12.73;;;6.70;99.90;;;;;;5110183;28;20442;-66
2020/12/12 07:16:44;;;;;;;12.40;11.20;;;6.70;99.90;;;;;;5109706;28;20404;-65
2020/12/12 07:19:11;;;;;;;13.50;12.20;;;6.60;99.90;;;;;;5110535;28;20163;-65
2020/12/12 07:21:40;;;;;;;13.60;12.20;;;6.70;99.90;;;;;;5108744;28;20235;-65
2020/12/12 07:24:06;;;;;;;14.60;13.20;;;6.70;99.90;;;;;;5110071;28;20468;-65
2020/12/12 07:26:32;;;;;;;13.67;12.33;;;6.70;99.90;;;;;;5110033;28;20416;-66
2020/12/12 07:28:58;;;;;;;14.20;12.80;;;6.80;99.90;;;;;;5097705;28;20581;-66
2020/12/12 07:31:23;;;;;;;16.07;14.57;;;6.70;99.90;;;;;;5089925;28;20397;-65
2020/12/12 07:33:49;;;;;;;14.97;13.37;;;6.70;99.90;;;;;;5089527;28;20532;-65
2020/12/12 07:36:15;;;;;;;15.70;14.20;;;6.70;99.90;;;;;;5089765;28;20640;-66
2020/12/12 07:38:41;;;;;;;16.33;14.63;;;6.70;99.90;;;;;;5089421;28;20163;-66
2020/12/12 07:41:12;;;;;;;16.70;15.00;;;6.80;99.90;;;;;;5089225;28;20218;-66
2020/12/12 07:43:55;;;;;;;16.90;15.30;;;6.70;99.90;;;;;;5089475;28;20394;-66
2020/12/12 07:46:24;;;;;;;16.83;15.17;;;6.80;99.90;;;;;;5091593;28;20429;-65
2020/12/12 07:49:00;;;;;;;17.33;15.63;;;6.80;99.90;;;;;;5089548;28;20386;-65
2020/12/12 07:51:26;;;;;;;16.87;15.17;;;6.80;99.90;;;;;;5067728;28;20409;-65
2020/12/12 07:53:52;;;;;;;16.50;14.80;;;6.70;99.90;;;;;;5074415;28;20414;-65
2020/12/12 07:56:20;;;;;;;16.23;14.63;;;6.70;99.90;;;;;;5075581;28;20733;-65
2020/12/12 07:58:58;;;;;;;16.47;14.93;;;6.70;99.90;;;;;;5076286;28;20190;-65
2020/12/12 08:01:25;;;;;;;17.17;15.43;;;6.70;99.90;;;;;;5075720;28;20982;-65
2020/12/12 08:03:50;;;;;;;16.20;14.70;;;6.70;99.90;;;;;;5076178;28;20472;-65
2020/12/12 08:06:16;;;;;;;17.07;15.10;;;6.80;99.90;;;;;;5073862;28;20405;-65
2020/12/12 08:08:41;;;;;;;15.33;13.93;;;6.80;99.90;;;;;;5073951;28;20173;-66
2020/12/12 08:11:07;;;;;;;16.23;14.53;;;6.90;99.90;;;;;;5073770;28;20164;-66
2020/12/12 08:13:34;;;;;;;16.93;15.40;;;6.90;99.90;;;;;;5074030;28;20151;-65
2020/12/12 08:16:09;;;;;;;15.07;13.67;;;6.90;99.90;;;;;;5082796;28;20482;-66
2020/12/12 08:18:34;;;;;;;15.70;14.30;;;7.00;99.90;;;;;;5095537;28;20421;-65
2020/12/12 08:21:18;;;;;;;14.93;13.53;;;7.00;99.90;;;;;;5075498;28;20538;-65
2020/12/12 08:23:45;;;;;;;15.23;13.83;;;7.10;99.90;;;;;;5073826;28;20587;-66
2020/12/12 08:26:16;;;;;;;14.90;13.60;;;7.10;99.90;;;;;;5075808;28;20473;-66
2020/12/12 08:28:43;;;;;;;14.23;12.90;;;7.10;99.90;;;;;;5073850;28;20472;-66
2020/12/12 08:31:11;;;;;;;14.13;12.83;;;7.10;99.90;;;;;;5074950;28;20891;-65
2020/12/12 08:33:37;;;;;;;13.77;12.47;;;7.20;99.90;;;;;;5075121;28;20441;-66
2020/12/12 08:36:24;;;;;;;14.50;13.10;;;7.20;99.90;;;;;;5075516;28;20417;-66
2020/12/12 08:38:52;;;;;;;14.00;12.60;;;7.20;99.90;;;;;;5074169;28;20235;-65
2020/12/12 08:41:20;;;;;;;13.13;11.93;;;7.20;99.90;;;;;;5073554;28;20464;-66
2020/12/12 08:43:46;;;;;;;12.60;11.50;;;7.20;99.90;;;;;;5074787;28;20952;-66
2020/12/12 08:46:15;;;;;;;13.03;11.93;;;7.10;99.90;;;;;;5074554;28;20437;-66
2020/12/12 08:48:41;;;;;;;13.60;12.23;;;7.20;99.90;;;;;;5074630;28;20414;-65
2020/12/12 08:51:08;;;;;;;13.53;12.23;;;7.20;99.90;;;;;;5074489;28;20433;-65
2020/12/12 09:06:50;;;;;;;10.40;9.40;;;7.30;99.90;;;;;;5111614;27;20505;-65
2020/12/12 09:14:43;;;;;;;9.80;8.90;;;7.70;99.90;;;;;;5130768;27;20561;-65
2020/12/12 09:17:13;;;;;;;9.20;8.27;;;7.70;99.90;;;;;;5131392;28;20379;-65
2020/12/12 09:19:39;;;;;;;9.37;8.57;;;7.80;99.90;;;;;;5131676;28;20476;-65
2020/12/12 09:22:07;;;;;;;8.80;7.90;;;7.80;99.90;;;;;;5129630;28;20483;-65
2020/12/12 09:24:33;;;;;;;8.80;7.87;;;7.80;99.90;;;;;;5131109;28;20168;-65
2020/12/12 09:26:59;;;;;;;7.30;6.63;;;7.90;99.90;;;;;;5125309;27;20918;-65
2020/12/12 09:29:25;;;;;;;8.20;7.50;;;7.90;99.90;;;;;;5090144;28;20154;-65
2020/12/12 09:31:54;;;;;;;7.13;6.43;;;7.80;99.90;;;;;;5089924;28;20389;-65
2020/12/12 09:34:20;;;;;;;7.40;6.63;;;7.80;99.90;;;;;;5090037;28;20437;-65
2020/12/12 09:36:47;;;;;;;6.87;6.27;;;7.80;99.90;;;;;;5090138;28;20388;-65
2020/12/12 09:39:13;;;;;;;6.90;6.30;;;7.80;99.90;;;;;;5088932;28;20187;-65
2020/12/12 09:41:38;;;;;;;5.80;5.30;;;7.80;99.90;;;;;;5088761;28;20752;-65
2020/12/12 09:44:05;;;;;;;6.40;5.70;;;7.70;99.90;;;;;;5090544;28;20307;-65
2020/12/12 09:46:30;;;;;;;7.57;6.97;;;7.70;99.90;;;;;;5110166;28;20193;-65
2020/12/12 09:48:58;;;;;;;7.20;6.60;;;7.80;99.90;;;;;;5110160;28;20399;-65
2020/12/12 09:51:23;;;;;;;7.10;6.23;;;7.80;99.90;;;;;;5110215;28;20150;-65
2020/12/12 09:53:49;;;;;;;7.17;6.50;;;7.80;99.90;;;;;;5110104;28;20436;-65
2020/12/12 09:56:16;;;;;;;6.43;5.93;;;7.90;99.90;;;;;;5110283;28;20154;-65
2020/12/12 09:58:42;;;;;;;7.33;6.70;;;7.90;99.90;;;;;;5108873;28;20237;-65
2020/12/12 10:01:08;;;;;;;7.77;7.17;;;7.90;99.90;;;;;;5105546;28;20440;-65
2020/12/12 10:03:34;;;;;;;9.87;6.97;;;7.90;99.90;;;;;;5088346;28;20427;-65
2020/12/12 10:05:59;;;;;;;7.40;6.77;;;8.00;99.90;;;;;;5089773;28;20730;-65
2020/12/12 10:08:25;;;;;;;7.50;6.90;;;7.90;99.90;;;;;;5089612;28;20159;-65
2020/12/12 10:10:52;;;;;;;7.67;7.03;;;7.90;99.90;;;;;;5089448;28;20166;-65
2020/12/12 10:13:17;;;;;;;7.53;6.80;;;7.90;99.90;;;;;;5087934;28;20197;-65
2020/12/12 10:15:43;;;;;;;7.60;6.90;;;7.70;99.90;;;;;;5102563;28;20430;-65
2020/12/12 10:18:10;;;;;;;8.20;7.50;;;7.70;99.90;;;;;;5105390;28;20223;-65
2020/12/12 10:20:36;;;;;;;7.67;7.07;;;7.70;99.90;;;;;;5089334;28;20214;-65
2020/12/12 10:23:03;;;;;;;7.60;6.90;;;7.70;99.90;;;;;;5088255;28;20888;-65
2020/12/12 10:25:29;;;;;;;8.57;7.77;;;7.70;99.90;;;;;;5078831;28;20393;-65
2020/12/12 10:27:56;;;;;;;8.13;7.43;;;7.80;99.90;;;;;;5074933;28;20405;-65
2020/12/12 10:30:21;;;;;;;8.33;7.63;;;7.80;99.90;;;;;;5074583;28;20167;-65
2020/12/12 10:32:47;;;;;;;7.60;7.00;;;7.80;99.90;;;;;;5075741;28;20917;-65
2020/12/12 10:35:12;;;;;;;9.27;8.40;;;7.80;99.90;;;;;;5076081;28;20179;-65
2020/12/12 10:37:39;;;;;;;9.20;8.27;;;7.80;99.90;;;;;;5075587;28;20520;-65
2020/12/12 10:40:12;;;;;;;7.90;7.20;;;7.80;99.90;;;;;;5075673;28;20253;-65
2020/12/12 10:42:37;;;;;;;8.20;7.50;;;7.80;99.90;;;;;;5075512;28;20386;-65
2020/12/12 10:45:05;;;;;;;8.20;7.40;;;7.80;99.90;;;;;;5084916;28;20412;-65
2020/12/12 10:47:30;;;;;;;9.27;8.37;;;7.80;99.90;;;;;;5094352;28;20694;-65
2020/12/12 10:49:56;;;;;;;9.27;8.47;;;7.80;99.90;;;;;;5095480;28;20435;-65
2020/12/12 10:52:22;;;;;;;10.43;9.47;;;7.80;99.90;;;;;;5087905;28;20266;-65
2020/12/12 10:54:49;;;;;;;9.00;8.20;;;7.80;99.90;;;;;;5074996;28;20668;-65
2020/12/12 10:57:14;;;;;;;9.60;8.77;;;7.80;99.90;;;;;;5075093;28;20155;-65
2020/12/12 10:59:42;;;;;;;8.97;8.27;;;7.80;99.90;;;;;;5075021;28;20389;-65
2020/12/12 11:02:11;;;;;;;8.27;7.47;;;7.80;99.90;;;;;;5075312;28;20592;-65
2020/12/12 11:04:38;;;;;;;10.13;9.23;;;7.70;99.90;;;;;;5073721;28;20886;-65
2020/12/12 11:07:04;;;;;;;8.60;7.80;;;7.70;99.90;;;;;;5075237;28;20400;-65
2020/12/12 11:09:29;;;;;;;9.00;8.10;;;7.70;99.90;;;;;;5075523;28;20998;-65
2020/12/12 11:11:55;;;;;;;8.80;7.90;;;7.70;99.90;;;;;;5074703;28;20446;-65
2020/12/12 11:14:20;;;;;;;9.13;8.30;;;7.60;99.90;;;;;;5077961;28;20202;-65
2020/12/12 11:16:46;;;;;;;9.63;8.63;;;7.50;99.90;;;;;;5095166;28;20172;-65
2020/12/12 11:19:11;;;;;;;8.20;7.50;;;7.50;99.90;;;;;;5094875;28;20562;-65
2020/12/12 11:21:40;;;;;;;12.20;9.07;;;7.50;99.90;;;;;;5095136;28;20248;-65
2020/12/12 11:24:06;;;;;;;9.60;8.70;;;7.50;99.90;;;;;;5094813;28;20629;-65
2020/12/12 11:26:32;;;;;;;9.70;8.73;;;7.50;99.90;;;;;;5087232;28;20419;-65
2020/12/12 11:28:57;;;;;;;10.60;9.60;;;7.50;99.90;;;;;;5074576;28;20881;-65
2020/12/12 11:31:24;;;;;;;9.80;8.90;;;7.50;99.90;;;;;;5074443;28;20224;-65
2020/12/12 11:33:56;;;;;;;8.93;8.00;;;7.50;99.90;;;;;;5074407;28;20213;-65
2020/12/12 11:47:13;;;;;;;9.70;8.80;;;7.60;99.90;;;;;;5110807;27;20508;-65
2020/12/12 11:49:40;;;;;;;8.50;7.70;;;7.60;99.90;;;;;;5110784;28;20430;-65
2020/12/12 11:52:06;;;;;;;9.80;8.90;;;7.60;99.90;;;;;;5109774;28;20546;-65
2020/12/12 11:54:31;;;;;;;9.33;8.27;;;7.70;99.90;;;;;;5110586;28;20394;-65
2020/12/12 11:56:57;;;;;;;10.50;8.37;;;7.70;99.90;;;;;;5110847;28;20561;-65
2020/12/12 11:59:23;;;;;;;8.57;7.83;;;7.80;99.90;;;;;;5110659;28;20614;-65
2020/12/12 12:01:49;;;;;;;9.27;8.37;;;7.80;99.90;;;;;;5092293;28;20643;-65
2020/12/12 12:04:14;;;;;;;8.40;7.60;;;7.80;99.90;;;;;;5090090;28;20475;-65
2020/12/12 12:06:40;;;;;;;8.50;7.60;;;7.90;99.90;;;;;;5090198;28;20193;-65
2020/12/12 12:11:42;;;;;;;7.87;7.07;;;7.90;99.90;;;;;;5130612;27;20519;-65
2020/12/12 12:14:09;;;;;;;13.13;8.00;;;8.00;99.90;;;;;;5131268;28;20937;-66
2020/12/12 12:16:36;;;;;;;7.57;6.87;;;8.00;99.90;;;;;;5131182;28;20614;-66
2020/12/12 12:19:11;;;;;;;8.70;7.83;;;8.00;99.90;;;;;;5089756;28;20408;-66
2020/12/12 12:21:38;;;;;;;7.77;6.97;;;8.00;99.90;;;;;;5090160;28;20428;-66
2020/12/12 12:24:07;;;;;;;7.57;6.87;;;8.00;99.90;;;;;;5088955;28;20380;-66
2020/12/12 12:26:34;;;;;;;8.93;8.00;;;8.00;99.90;;;;;;5089183;28;20484;-66
2020/12/12 12:29:03;;;;;;;8.13;7.33;;;8.10;99.90;;;;;;5090530;28;20454;-65
2020/12/12 12:31:29;;;;;;;9.00;8.10;;;8.10;99.90;;;;;;5089991;28;20433;-66
2020/12/12 12:33:54;;;;;;;9.63;7.90;;;8.10;99.90;;;;;;5090503;28;20835;-66
2020/12/12 12:36:23;;;;;;;8.77;7.93;;;8.10;99.90;;;;;;5089882;28;20385;-66
2020/12/12 12:38:49;;;;;;;8.10;7.30;;;8.10;99.90;;;;;;5088645;28;20297;-66
2020/12/12 12:41:14;;;;;;;8.23;7.57;;;8.10;99.90;;;;;;5096403;28;20473;-65
2020/12/12 12:43:40;;;;;;;8.13;7.17;;;8.20;99.90;;;;;;5110452;28;20166;-66
2020/12/12 12:46:07;;;;;;;7.70;6.93;;;8.20;99.90;;;;;;5110307;28;20598;-66
2020/12/12 12:48:32;;;;;;;8.67;7.87;;;8.30;99.90;;;;;;5110143;28;20166;-66
2020/12/12 12:50:58;;;;;;;8.33;7.53;;;8.40;99.90;;;;;;5107006;28;20567;-66
2020/12/12 12:53:23;;;;;;;8.40;7.60;;;8.50;99.90;;;;;;5089674;28;20194;-65
2020/12/12 12:55:49;;;;;;;8.23;7.53;;;8.50;99.90;;;;;;5089544;28;20241;-66
2020/12/12 12:58:14;;;;;;;8.93;8.13;;;8.50;99.90;;;;;;5089463;28;20171;-66
2020/12/12 13:00:40;;;;;;;9.17;8.30;;;8.50;99.90;;;;;;5089574;28;20275;-66
2020/12/12 13:03:06;;;;;;;9.23;8.20;;;8.50;99.90;;;;;;5089481;28;20175;-66
2020/12/12 13:05:32;;;;;;;10.70;8.80;;;8.50;99.90;;;;;;5089685;28;20593;-66
2020/12/12 13:07:58;;;;;;;9.47;8.60;;;8.50;99.90;;;;;;5088577;28;20789;-66
2020/12/12 13:10:24;;;;;;;20.63;9.40;;;8.60;99.90;;;;;;5088103;28;20453;-66
2020/12/12 13:12:49;;;;;;;9.97;8.97;;;8.60;99.90;;;;;;5108980;28;20182;-66
2020/12/12 13:15:15;;;;;;;10.90;9.67;;;8.60;99.90;;;;;;5109616;28;20307;-66
2020/12/12 13:17:40;;;;;;;11.00;8.30;;;8.70;99.90;;;;;;5109415;28;20599;-66